createdAt,value
2022-12-03T02:21:33.150Z,101512.69
2022-12-03T02:22:12.876Z,101508.88
2022-12-03T02:22:56.957Z,101511.38
2022-12-03T02:23:33.966Z,101512.69
2022-12-03T02:24:12.222Z,101507.03
2022-12-03T02:24:55.520Z,101516.34
2022-12-03T02:25:32.800Z,101513.34
2022-12-03T02:26:07.685Z,101511.50
2022-12-03T02:26:39.785Z,101510.53
2022-12-03T02:27:12.047Z,101519.13
2022-12-03T02:27:47.295Z,101502.06
2022-12-03T02:28:19.406Z,101515.81
2022-12-03T02:28:51.594Z,101513.63
2022-12-03T02:29:24.305Z,101506.97
2022-12-03T02:29:59.410Z,101505.66
2022-12-03T02:30:32.703Z,101509.81
2022-12-03T02:31:05.426Z,101510.28
2022-12-03T02:31:40.348Z,101508.63
2022-12-03T02:32:12.460Z,101507.78
2022-12-03T02:32:45.024Z,101518.88
2022-12-03T02:33:19.801Z,101506.28
2022-12-03T02:33:51.931Z,101510.41
2022-12-03T02:34:35.759Z,101507.25
2022-12-03T02:35:17.071Z,101503.44
2022-12-03T02:35:49.597Z,101510.22
2022-12-03T02:36:21.846Z,101511.72
2022-12-03T02:36:53.949Z,101512.19
2022-12-03T02:37:33.533Z,101510.16
2022-12-03T02:38:12.380Z,101513.03
2022-12-03T02:38:45.721Z,101514.50
2022-12-03T02:39:20.449Z,101514.31
2022-12-03T02:39:54.966Z,101510.47
2022-12-03T02:40:33.180Z,101513.81
2022-12-03T02:41:11.181Z,101524.22
2022-12-03T02:41:58.317Z,101519.75
2022-12-03T02:42:36.545Z,101520.78
2022-12-03T02:43:09.812Z,101517.47
2022-12-03T02:43:41.897Z,101526.59
2022-12-03T02:44:14.238Z,101525.09
2022-12-03T02:44:46.421Z,101515.47
2022-12-03T02:45:26.638Z,101527.13
2022-12-03T02:46:01.829Z,101516.50
2022-12-03T02:46:34.428Z,101519.78
2022-12-03T02:47:09.330Z,101523.13
2022-12-03T02:47:44.558Z,101524.59
2022-12-03T02:48:22.418Z,101524.44
2022-12-03T02:48:54.566Z,101521.09
2022-12-03T02:49:26.733Z,101527.25
2022-12-03T02:50:02.739Z,101523.44
2022-12-03T02:50:38.068Z,101521.41
2022-12-03T02:51:14.021Z,101517.78
2022-12-03T02:51:46.161Z,101521.25
2022-12-03T02:52:18.696Z,101522.09
2022-12-03T02:52:55.805Z,101523.72
2022-12-03T02:53:30.958Z,101522.09
2022-12-03T02:54:04.236Z,101523.91
2022-12-03T02:54:39.190Z,101520.06
2022-12-03T02:55:13.004Z,101523.72
2022-12-03T02:55:48.750Z,101522.56
2022-12-03T02:56:28.983Z,101529.53
2022-12-03T02:57:01.378Z,101526.22
2022-12-03T02:57:35.015Z,101521.56
2022-12-03T02:58:09.954Z,101524.03
2022-12-03T02:58:44.344Z,101525.69
2022-12-03T02:59:16.463Z,101523.72
2022-12-03T02:59:51.211Z,101527.16
2022-12-03T03:00:23.444Z,101520.03
2022-12-03T03:00:58.985Z,101532.97
2022-12-03T03:01:31.397Z,101528.66
2022-12-03T03:02:04.072Z,101535.44
2022-12-03T03:02:39.350Z,101528.31
2022-12-03T03:03:11.818Z,101523.81
2022-12-03T03:03:46.401Z,101529.59
2022-12-03T03:04:22.469Z,101531.28
2022-12-03T03:04:55.486Z,101532.25
2022-12-03T03:05:27.955Z,101518.97
2022-12-03T03:06:04.844Z,101530.97
2022-12-03T03:06:36.965Z,101527.66
2022-12-03T03:07:09.770Z,101532.97
2022-12-03T03:07:45.336Z,101537.47
2022-12-03T03:08:18.975Z,101525.19
2022-12-03T03:08:51.473Z,101528.00
2022-12-03T03:09:26.217Z,101535.97
2022-12-03T03:09:59.119Z,101535.13
2022-12-03T03:10:35.180Z,101530.66
2022-12-03T03:11:12.685Z,101533.31
2022-12-03T03:11:44.799Z,101533.31
2022-12-03T03:12:17.096Z,101534.13
2022-12-03T03:12:52.625Z,101533.81
2022-12-03T03:13:24.891Z,101538.09
2022-12-03T03:13:57.044Z,101538.75
2022-12-03T03:14:31.793Z,101532.25
2022-12-03T03:15:05.291Z,101531.44
2022-12-03T03:15:38.874Z,101536.75
2022-12-03T03:16:13.664Z,101540.44
2022-12-03T03:16:46.134Z,101533.44
2022-12-03T03:17:18.314Z,101537.56
2022-12-03T03:17:53.275Z,101539.25
2022-12-03T03:18:25.604Z,101535.59
2022-12-03T03:18:57.700Z,101531.09
2022-12-03T03:19:33.046Z,101538.88
2022-12-03T03:20:07.491Z,101537.25
2022-12-03T03:20:40.627Z,101537.25
2022-12-03T03:21:15.917Z,101539.72
2022-12-03T03:21:48.032Z,101537.06
2022-12-03T03:22:22.818Z,101541.22
2022-12-03T03:22:55.241Z,101534.25
2022-12-03T03:23:27.438Z,101533.03
2022-12-03T03:24:02.136Z,101527.56
2022-12-03T03:24:34.289Z,101534.53
2022-12-03T03:25:09.368Z,101534.34
2022-12-03T03:25:46.612Z,101531.69
2022-12-03T03:26:21.376Z,101536.53
2022-12-03T03:26:54.590Z,101528.25
2022-12-03T03:27:30.040Z,101536.59
2022-12-03T03:28:02.274Z,101534.28
2022-12-03T03:28:38.085Z,101538.59
2022-12-03T03:29:12.947Z,101539.75
2022-12-03T03:29:45.076Z,101539.75
2022-12-03T03:30:17.357Z,101536.28
2022-12-03T03:30:52.094Z,101544.06
2022-12-03T03:31:24.614Z,101530.13
2022-12-03T03:31:58.000Z,101535.44
2022-12-03T03:32:33.330Z,101535.63
2022-12-03T03:33:06.002Z,101538.28
2022-12-03T03:33:40.399Z,101533.97
2022-12-03T03:34:15.752Z,101539.28
2022-12-03T03:34:47.996Z,101531.31
2022-12-03T03:35:20.506Z,101539.91
2022-12-03T03:35:56.276Z,101535.63
2022-12-03T03:36:28.430Z,101531.16
2022-12-03T03:37:00.610Z,101535.44
2022-12-03T03:37:35.598Z,101533.44
2022-12-03T03:38:09.052Z,101540.44
2022-12-03T03:38:41.948Z,101538.59
2022-12-03T03:39:17.325Z,101544.56
2022-12-03T03:39:49.729Z,101533.75
2022-12-03T03:40:22.357Z,101534.41
2022-12-03T03:40:57.193Z,101533.41
2022-12-03T03:41:33.817Z,101533.25
2022-12-03T03:42:06.045Z,101533.25
2022-12-03T03:42:41.678Z,101530.59
2022-12-03T03:43:14.296Z,101528.75
2022-12-03T03:43:48.660Z,101533.88
2022-12-03T03:44:23.507Z,101539.03
2022-12-03T03:44:55.832Z,101541.00
2022-12-03T03:45:29.643Z,101547.16
2022-12-03T03:46:06.331Z,101547.16
2022-12-03T03:46:39.705Z,101541.00
2022-12-03T03:47:12.976Z,101538.34
2022-12-03T03:47:48.234Z,101545.53
2022-12-03T03:48:21.253Z,101545.84
2022-12-03T03:48:53.529Z,101545.22
2022-12-03T03:49:28.787Z,101547.03
2022-12-03T03:50:01.396Z,101548.88
2022-12-03T03:50:34.086Z,101547.22
2022-12-03T03:51:09.821Z,101544.91
2022-12-03T03:51:42.017Z,101553.19
2022-12-03T03:52:14.287Z,101548.09
2022-12-03T03:52:49.810Z,101551.56
2022-12-03T03:53:23.319Z,101549.91
2022-12-03T03:53:56.114Z,101548.91
2022-12-03T03:54:31.816Z,101551.56
2022-12-03T03:55:04.566Z,101552.22
2022-12-03T03:55:36.801Z,101552.03
2022-12-03T03:56:12.438Z,101554.53
2022-12-03T03:56:47.142Z,101556.38
2022-12-03T03:57:19.231Z,101555.53
2022-12-03T03:57:54.112Z,101551.06
2022-12-03T03:58:26.329Z,101559.84
2022-12-03T03:59:01.418Z,101552.69
2022-12-03T03:59:33.681Z,101555.19
2022-12-03T04:00:08.463Z,101550.53
2022-12-03T04:00:46.784Z,101552.34
2022-12-03T04:01:19.123Z,101553.50
2022-12-03T04:01:52.050Z,101549.88
2022-12-03T04:02:29.070Z,101556.84
2022-12-03T04:03:01.213Z,101552.69
2022-12-03T04:03:34.331Z,101551.06
2022-12-03T04:04:17.268Z,101550.84
2022-12-03T04:04:50.123Z,101553.88
2022-12-03T04:05:24.139Z,101546.72
2022-12-03T04:05:58.893Z,101556.38
2022-12-03T04:06:30.957Z,101552.03
2022-12-03T04:07:03.058Z,101552.69
2022-12-03T04:07:37.816Z,101555.34
2022-12-03T04:08:10.098Z,101551.69
2022-12-03T04:08:42.383Z,101566.63
2022-12-03T04:09:17.380Z,101551.53
2022-12-03T04:09:49.500Z,101552.53
2022-12-03T04:10:36.630Z,101560.50
2022-12-03T04:11:23.752Z,101554.88
2022-12-03T04:12:13.496Z,101556.88
2022-12-03T04:12:57.238Z,101560.69
2022-12-03T04:13:31.957Z,101563.34
2022-12-03T04:14:04.104Z,101559.88
2022-12-03T04:14:36.232Z,101565.16
2022-12-03T04:15:12.254Z,101566.00
2022-12-03T04:15:44.378Z,101563.53
2022-12-03T04:16:16.637Z,101567.81
2022-12-03T04:16:51.423Z,101566.00
2022-12-03T04:17:23.680Z,101565.38
2022-12-03T04:18:10.712Z,101557.41
2022-12-03T04:18:45.428Z,101563.88
2022-12-03T04:19:20.159Z,101562.88
2022-12-03T04:19:52.498Z,101562.72
2022-12-03T04:20:24.643Z,101566.00
2022-12-03T04:21:19.646Z,101564.19
2022-12-03T04:22:06.761Z,101564.69
2022-12-03T04:22:41.517Z,101565.88
2022-12-03T04:23:13.607Z,101566.88
2022-12-03T04:23:45.814Z,101564.22
2022-12-03T04:24:20.598Z,101564.38
2022-12-03T04:25:12.692Z,101567.03
2022-12-03T04:26:11.749Z,101570.22
2022-12-03T04:26:58.907Z,101566.44
2022-12-03T04:27:48.612Z,101568.91
2022-12-03T04:28:35.820Z,101570.72
2022-12-03T04:29:08.232Z,101570.56
2022-12-03T04:29:42.915Z,101570.22
2022-12-03T04:30:15.797Z,101569.88
2022-12-03T04:30:47.872Z,101572.19
2022-12-03T04:31:35.025Z,101573.66
2022-12-03T04:32:22.127Z,101574.69
2022-12-03T04:33:09.220Z,101579.31
2022-12-03T04:33:56.315Z,101571.34
2022-12-03T04:34:43.877Z,101572.19
2022-12-03T04:35:31.130Z,101573.84
2022-12-03T04:36:05.998Z,101575.66
2022-12-03T04:36:38.516Z,101572.81
2022-12-03T04:37:12.167Z,101576.16
2022-12-03T04:37:46.885Z,101579.63
2022-12-03T04:38:19.181Z,101577.97
2022-12-03T04:38:51.258Z,101577.81
2022-12-03T04:39:23.360Z,101582.94
2022-12-03T04:39:58.180Z,101574.16
2022-12-03T04:40:45.283Z,101573.34
2022-12-03T04:41:17.330Z,101583.13
2022-12-03T04:41:49.459Z,101580.28
2022-12-03T04:42:24.338Z,101576.47
2022-12-03T04:42:58.976Z,101571.97
2022-12-03T04:43:32.542Z,101580.78
2022-12-03T04:44:19.825Z,101580.78
2022-12-03T04:44:54.723Z,101576.63
2022-12-03T04:45:27.080Z,101580.13
2022-12-03T04:45:59.406Z,101582.41
2022-12-03T04:46:31.628Z,101576.13
2022-12-03T04:47:10.226Z,101582.09
2022-12-03T04:47:42.353Z,101578.59
2022-12-03T04:48:14.434Z,101583.75
2022-12-03T04:48:46.521Z,101577.41
2022-12-03T04:49:21.178Z,101579.25
2022-12-03T04:49:53.287Z,101583.75
2022-12-03T04:50:27.981Z,101582.72
2022-12-03T04:51:00.121Z,101580.06
2022-12-03T04:51:32.206Z,101586.41
2022-12-03T04:52:07.567Z,101589.06
2022-12-03T04:52:39.661Z,101580.28
2022-12-03T04:53:13.024Z,101590.06
2022-12-03T04:53:47.657Z,101583.91
2022-12-03T04:54:19.750Z,101581.41
2022-12-03T04:54:54.621Z,101582.25
2022-12-03T04:55:26.878Z,101578.75
2022-12-03T04:55:58.957Z,101588.22
2022-12-03T04:56:31.051Z,101590.91
2022-12-03T04:57:06.481Z,101590.06
2022-12-03T04:57:38.545Z,101586.41
2022-12-03T04:58:13.254Z,101589.06
2022-12-03T04:58:45.387Z,101584.75
2022-12-03T04:59:20.054Z,101587.41
2022-12-03T04:59:52.106Z,101594.38
2022-12-03T05:00:24.496Z,101589.22
2022-12-03T05:00:59.239Z,101589.22
2022-12-03T05:01:31.444Z,101589.06
2022-12-03T05:02:04.540Z,101588.03
2022-12-03T05:02:40.702Z,101597.69
2022-12-03T05:03:12.815Z,101594.84
2022-12-03T05:03:44.907Z,101587.88
2022-12-03T05:04:19.861Z,101594.66
2022-12-03T05:04:52.361Z,101591.22
2022-12-03T05:05:24.739Z,101586.69
2022-12-03T05:05:59.397Z,101594.50
2022-12-03T05:06:31.510Z,101602.47
2022-12-03T05:07:06.729Z,101596.16
2022-12-03T05:07:38.971Z,101605.13
2022-12-03T05:08:11.155Z,101598.00
2022-12-03T05:08:43.295Z,101603.13
2022-12-03T05:09:17.958Z,101602.94
2022-12-03T05:09:50.022Z,101597.81
2022-12-03T05:10:22.096Z,101599.66
2022-12-03T05:10:56.822Z,101594.34
2022-12-03T05:11:28.900Z,101601.31
2022-12-03T05:12:01.050Z,101600.66
2022-12-03T05:12:35.884Z,101595.34
2022-12-03T05:13:07.958Z,101599.81
2022-12-03T05:13:43.176Z,101604.13
2022-12-03T05:14:18.198Z,101606.78
2022-12-03T05:14:50.263Z,101599.66
2022-12-03T05:15:22.355Z,101600.47
2022-12-03T05:15:54.494Z,101597.00
2022-12-03T05:16:29.271Z,101598.66
2022-12-03T05:17:01.548Z,101598.66
2022-12-03T05:17:33.879Z,101596.81
2022-12-03T05:18:08.654Z,101607.44
2022-12-03T05:18:40.720Z,101605.78
2022-12-03T05:19:12.781Z,101601.31
2022-12-03T05:19:59.922Z,101608.44
2022-12-03T05:20:49.827Z,101608.78
2022-12-03T05:21:28.004Z,101607.47
2022-12-03T05:22:00.146Z,101607.31
2022-12-03T05:22:32.231Z,101608.13
2022-12-03T05:23:04.359Z,101601.00
2022-12-03T05:23:39.069Z,101608.97
2022-12-03T05:24:11.150Z,101606.31
2022-12-03T05:24:43.223Z,101609.81
2022-12-03T05:25:15.372Z,101613.25
2022-12-03T05:25:50.115Z,101613.25
2022-12-03T05:26:22.241Z,101615.28
2022-12-03T05:26:57.039Z,101618.09
2022-12-03T05:27:29.222Z,101613.78
2022-12-03T05:28:01.274Z,101618.09
2022-12-03T05:28:36.106Z,101617.09
2022-12-03T05:29:10.765Z,101619.75
2022-12-03T05:29:42.828Z,101618.09
2022-12-03T05:30:17.857Z,101616.44
2022-12-03T05:30:50.191Z,101621.75
2022-12-03T05:31:22.420Z,101620.75
2022-12-03T05:31:57.134Z,101618.09
2022-12-03T05:32:29.304Z,101625.91
2022-12-03T05:33:01.575Z,101623.25
2022-12-03T05:33:33.773Z,101626.72
2022-12-03T05:34:08.527Z,101627.56
2022-12-03T05:34:40.609Z,101624.25
2022-12-03T05:35:12.730Z,101623.41
2022-12-03T05:35:44.845Z,101620.75
2022-12-03T05:36:19.525Z,101626.91
2022-12-03T05:36:51.585Z,101630.22
2022-12-03T05:37:23.668Z,101623.88
2022-12-03T05:37:55.732Z,101626.38
2022-12-03T05:38:30.416Z,101626.22
2022-12-03T05:39:02.538Z,101625.22
2022-12-03T05:39:34.793Z,101626.84
2022-12-03T05:40:11.017Z,101626.84
2022-12-03T05:40:43.106Z,101623.56
2022-12-03T05:41:30.215Z,101626.03
2022-12-03T05:42:17.394Z,101628.19
2022-12-03T05:42:56.791Z,101627.56
2022-12-03T05:43:31.532Z,101625.91
2022-12-03T05:44:03.608Z,101617.94
2022-12-03T05:44:38.421Z,101620.59
2022-12-03T05:45:13.524Z,101628.56
2022-12-03T05:45:45.698Z,101629.56
2022-12-03T05:46:18.056Z,101629.56
2022-12-03T05:46:52.722Z,101627.72
2022-12-03T05:47:24.898Z,101626.91
2022-12-03T05:47:58.759Z,101628.72
2022-12-03T05:48:33.469Z,101639.53
2022-12-03T05:49:05.556Z,101626.25
2022-12-03T05:49:37.638Z,101632.38
2022-12-03T05:50:12.847Z,101623.41
2022-12-03T05:50:46.448Z,101631.22
2022-12-03T05:51:23.657Z,101630.22
2022-12-03T05:51:58.680Z,101637.34
2022-12-03T05:52:31.054Z,101626.72
2022-12-03T05:53:05.770Z,101631.84
2022-12-03T05:53:37.904Z,101628.41
2022-12-03T05:54:10.134Z,101626.53
2022-12-03T05:54:44.870Z,101627.38
2022-12-03T05:55:18.073Z,101627.38
2022-12-03T05:55:50.137Z,101635.19
2022-12-03T05:56:24.826Z,101630.53
2022-12-03T05:56:56.892Z,101636.66
2022-12-03T05:57:29.046Z,101632.16
2022-12-03T05:58:03.757Z,101637.31
2022-12-03T05:58:36.204Z,101637.31
2022-12-03T05:59:08.270Z,101638.97
2022-12-03T05:59:45.518Z,101637.16
2022-12-03T06:00:21.068Z,101640.81
2022-12-03T06:00:55.750Z,101636.31
2022-12-03T06:01:27.811Z,101638.78
2022-12-03T06:01:59.915Z,101634.50
2022-12-03T06:02:32.443Z,101644.09
2022-12-03T06:03:09.123Z,101642.28
2022-12-03T06:03:41.411Z,101638.78
2022-12-03T06:04:13.599Z,101635.13
2022-12-03T06:04:48.291Z,101642.13
2022-12-03T06:05:21.120Z,101639.63
2022-12-03T06:05:53.299Z,101638.78
2022-12-03T06:06:28.033Z,101645.13
2022-12-03T06:07:00.179Z,101641.44
2022-12-03T06:07:32.437Z,101642.13
2022-12-03T06:08:07.690Z,101643.78
2022-12-03T06:08:39.927Z,101644.63
2022-12-03T06:09:12.073Z,101640.09
2022-12-03T06:09:46.748Z,101641.75
2022-12-03T06:10:22.571Z,101648.91
2022-12-03T06:10:54.637Z,101644.41
2022-12-03T06:11:30.037Z,101645.25
2022-12-03T06:12:02.219Z,101643.44
2022-12-03T06:12:34.547Z,101638.13
2022-12-03T06:13:09.233Z,101649.41
2022-12-03T06:13:41.326Z,101644.91
2022-12-03T06:14:13.423Z,101645.56
2022-12-03T06:14:50.724Z,101641.91
2022-12-03T06:15:23.109Z,101639.44
2022-12-03T06:15:55.206Z,101646.41
2022-12-03T06:16:30.039Z,101643.75
2022-12-03T06:17:02.461Z,101649.06
2022-12-03T06:17:34.629Z,101656.03
2022-12-03T06:18:06.697Z,101643.59
2022-12-03T06:18:41.396Z,101647.03
2022-12-03T06:19:13.461Z,101652.34
2022-12-03T06:19:45.575Z,101648.06
2022-12-03T06:20:22.380Z,101650.88
2022-12-03T06:20:54.472Z,101650.06
2022-12-03T06:21:26.608Z,101650.06
2022-12-03T06:21:58.728Z,101652.06
2022-12-03T06:22:33.532Z,101657.53
2022-12-03T06:23:05.659Z,101654.06
2022-12-03T06:23:44.758Z,101656.03
2022-12-03T06:24:17.022Z,101648.44
2022-12-03T06:24:49.204Z,101656.41
2022-12-03T06:25:23.937Z,101653.56
2022-12-03T06:25:56.025Z,101663.38
2022-12-03T06:26:30.726Z,101665.03
2022-12-03T06:27:02.803Z,101660.03
2022-12-03T06:27:34.875Z,101652.28
2022-12-03T06:28:09.812Z,101659.41
2022-12-03T06:28:46.388Z,101656.06
2022-12-03T06:29:18.507Z,101660.75
2022-12-03T06:29:55.891Z,101666.06
2022-12-03T06:30:28.053Z,101668.72
2022-12-03T06:31:00.197Z,101660.75
2022-12-03T06:31:34.963Z,101656.28
2022-12-03T06:32:07.904Z,101664.41
2022-12-03T06:32:42.736Z,101662.41
2022-12-03T06:33:14.821Z,101671.19
2022-12-03T06:33:46.905Z,101665.72
2022-12-03T06:34:21.700Z,101666.72
2022-12-03T06:34:54.103Z,101669.19
2022-12-03T06:35:26.397Z,101669.03
2022-12-03T06:36:01.279Z,101667.03
2022-12-03T06:36:33.363Z,101663.38
2022-12-03T06:37:05.444Z,101666.88
2022-12-03T06:37:40.143Z,101666.03
2022-12-03T06:38:12.292Z,101656.41
2022-12-03T06:38:44.412Z,101664.22
2022-12-03T06:39:19.151Z,101673.00
2022-12-03T06:39:51.372Z,101666.88
2022-12-03T06:40:24.635Z,101671.81
2022-12-03T06:40:59.305Z,101671.00
2022-12-03T06:41:31.387Z,101673.66
2022-12-03T06:42:03.560Z,101670.84
2022-12-03T06:42:38.234Z,101675.31
2022-12-03T06:43:10.324Z,101671.00
2022-12-03T06:43:42.424Z,101673.66
2022-12-03T06:44:17.144Z,101669.31
2022-12-03T06:44:49.306Z,101673.66
2022-12-03T06:45:26.638Z,101678.13
2022-12-03T06:45:58.749Z,101678.97
2022-12-03T06:46:30.933Z,101677.31
2022-12-03T06:47:05.693Z,101676.31
2022-12-03T06:47:37.882Z,101681.63
2022-12-03T06:48:09.943Z,101678.97
2022-12-03T06:48:44.606Z,101678.97
2022-12-03T06:49:16.729Z,101685.94
2022-12-03T06:49:51.414Z,101682.28
2022-12-03T06:50:23.608Z,101685.59
2022-12-03T06:50:55.746Z,101685.59
2022-12-03T06:51:30.715Z,101690.25
2022-12-03T06:52:02.855Z,101689.78
2022-12-03T06:52:37.997Z,101690.94
2022-12-03T06:53:10.081Z,101687.63
2022-12-03T06:53:42.173Z,101684.97
2022-12-03T06:54:14.264Z,101689.28
2022-12-03T06:54:48.926Z,101690.09
2022-12-03T06:55:21.007Z,101691.09
2022-12-03T06:55:53.117Z,101694.44
2022-12-03T06:56:34.421Z,101689.94
2022-12-03T06:57:08.105Z,101693.59
2022-12-03T06:57:42.903Z,101692.59
2022-12-03T06:58:14.992Z,101696.09
2022-12-03T06:58:47.141Z,101691.94
2022-12-03T06:59:21.950Z,101688.44
2022-12-03T06:59:54.286Z,101697.25
2022-12-03T07:00:31.711Z,101693.59
2022-12-03T07:01:03.924Z,101697.91
2022-12-03T07:01:36.031Z,101694.25
2022-12-03T07:02:11.217Z,101694.75
2022-12-03T07:02:44.769Z,101694.91
2022-12-03T07:03:18.827Z,101690.41
2022-12-03T07:03:53.521Z,101692.44
2022-12-03T07:04:25.621Z,101699.38
2022-12-03T07:04:58.024Z,101695.09
2022-12-03T07:05:32.986Z,101696.09
2022-12-03T07:06:05.411Z,101691.94
2022-12-03T07:06:37.515Z,101688.78
2022-12-03T07:07:12.230Z,101690.13
2022-12-03T07:07:44.584Z,101686.66
2022-12-03T07:08:16.759Z,101699.94
2022-12-03T07:08:51.457Z,101689.31
2022-12-03T07:09:23.885Z,101688.00
2022-12-03T07:09:56.071Z,101696.13
2022-12-03T07:10:30.849Z,101697.47
2022-12-03T07:11:02.948Z,101701.28
2022-12-03T07:11:40.543Z,101697.97
2022-12-03T07:12:15.615Z,101699.97
2022-12-03T07:12:47.726Z,101701.63
2022-12-03T07:13:20.019Z,101700.81
2022-12-03T07:13:52.102Z,101700.81
2022-12-03T07:14:26.925Z,101702.63
2022-12-03T07:14:59.205Z,101707.13
2022-12-03T07:15:33.858Z,101704.63
2022-12-03T07:16:09.715Z,101704.63
2022-12-03T07:16:43.536Z,101707.47
2022-12-03T07:17:18.324Z,101701.13
2022-12-03T07:17:51.226Z,101697.47
2022-12-03T07:18:23.303Z,101711.44
2022-12-03T07:18:58.359Z,101699.97
2022-12-03T07:19:32.856Z,101702.78
2022-12-03T07:20:09.609Z,101701.97
2022-12-03T07:20:41.717Z,101699.31
2022-12-03T07:21:14.657Z,101700.28
2022-12-03T07:21:49.385Z,101703.13
2022-12-03T07:22:21.483Z,101697.97
2022-12-03T07:22:56.233Z,101707.63
2022-12-03T07:23:28.314Z,101696.16
2022-12-03T07:24:03.104Z,101707.63
2022-12-03T07:24:35.282Z,101710.13
2022-12-03T07:25:11.571Z,101707.94
2022-12-03T07:25:43.681Z,101704.28
2022-12-03T07:26:15.946Z,101705.94
2022-12-03T07:26:50.610Z,101703.47
2022-12-03T07:27:22.710Z,101712.25
2022-12-03T07:27:54.939Z,101711.25
2022-12-03T07:28:29.617Z,101709.41
2022-12-03T07:29:01.896Z,101710.25
2022-12-03T07:29:33.983Z,101711.09
2022-12-03T07:30:11.322Z,101711.91
2022-12-03T07:30:46.040Z,101714.91
2022-12-03T07:31:18.186Z,101714.25
2022-12-03T07:31:53.300Z,101706.63
2022-12-03T07:32:25.468Z,101714.59
2022-12-03T07:32:57.522Z,101716.22
2022-12-03T07:33:32.186Z,101715.91
2022-12-03T07:34:04.275Z,101719.22
2022-12-03T10:36:41.141Z,101775.50
2022-12-03T10:37:16.416Z,101764.06
2022-12-03T10:37:50.686Z,101774.19
2022-12-03T10:38:26.642Z,101775.84
2022-12-03T10:39:11.083Z,101779.47
2022-12-03T10:40:05.437Z,101770.00
2022-12-03T10:40:40.628Z,101769.03
2022-12-03T10:41:29.389Z,101773.19
2022-12-03T10:42:15.171Z,101773.19
2022-12-03T10:42:49.811Z,101777.34
2022-12-03T10:43:24.053Z,101771.41
2022-12-03T10:44:15.333Z,101778.06
2022-12-03T10:44:47.413Z,101775.09
2022-12-03T10:45:24.345Z,101772.94
2022-12-03T10:46:11.733Z,101776.28
2022-12-03T10:46:47.108Z,101778.59
2022-12-03T10:47:21.125Z,101783.41
2022-12-03T10:48:05.499Z,101776.50
2022-12-03T10:48:40.958Z,101770.88
2022-12-03T10:49:17.451Z,101779.19
2022-12-03T10:50:04.948Z,101778.69
2022-12-03T10:50:38.391Z,101783.69
2022-12-03T10:51:21.077Z,101774.56
2022-12-03T10:51:55.822Z,101778.88
2022-12-03T10:52:30.631Z,101779.69
2022-12-03T10:53:03.421Z,101783.88
2022-12-03T10:53:41.423Z,101783.53
2022-12-03T10:54:20.387Z,101781.53
2022-12-03T10:54:55.431Z,101782.22
2022-12-03T10:55:29.118Z,101775.94
2022-12-03T10:56:06.849Z,101779.91
2022-12-03T10:56:39.102Z,101778.25
2022-12-03T10:57:11.430Z,101785.03
2022-12-03T10:57:47.151Z,101777.75
2022-12-03T10:58:22.885Z,101779.25
2022-12-03T10:58:58.053Z,101785.56
2022-12-03T10:59:33.114Z,101777.44
2022-12-03T11:00:09.940Z,101771.81
2022-12-03T11:00:42.008Z,101772.66
2022-12-03T11:01:17.344Z,101777.13
2022-12-03T11:01:53.471Z,101778.13
2022-12-03T11:02:26.586Z,101778.25
2022-12-03T11:02:58.670Z,101775.63
2022-12-03T11:03:38.645Z,101778.13
2022-12-03T11:04:21.446Z,101779.94
2022-12-03T11:04:57.698Z,101783.25
2022-12-03T11:05:29.886Z,101782.25
2022-12-03T11:06:02.979Z,101774.97
2022-12-03T11:06:37.678Z,101783.28
2022-12-03T11:07:17.526Z,101793.41
2022-12-03T11:07:49.944Z,101785.25
2022-12-03T11:08:26.854Z,101788.44
2022-12-03T11:09:03.827Z,101791.59
2022-12-03T11:09:41.767Z,101792.91
2022-12-03T11:10:18.314Z,101783.78
2022-12-03T11:11:01.142Z,101785.28
2022-12-03T11:11:33.511Z,101788.94
2022-12-03T11:12:10.546Z,101786.13
2022-12-03T11:12:42.971Z,101784.63
2022-12-03T11:13:47.123Z,101786.63
2022-12-03T11:14:49.328Z,101789.59
2022-12-03T11:15:45.587Z,101790.06
2022-12-03T11:16:48.128Z,101784.28
2022-12-03T11:17:44.384Z,101781.13
2022-12-03T11:18:46.054Z,101789.72
2022-12-03T11:19:21.805Z,101792.22
2022-12-03T11:19:54.008Z,101790.25
2022-12-03T11:21:07.691Z,101786.28
2022-12-03T11:22:19.778Z,101788.09
2022-12-03T11:22:58.376Z,101790.25
2022-12-03T11:24:00.444Z,101788.78
2022-12-03T11:24:37.137Z,101791.94
2022-12-03T11:25:47.928Z,101791.94
2022-12-03T11:26:57.627Z,101787.59
2022-12-03T11:27:29.732Z,101793.59
2022-12-03T11:28:34.804Z,101781.97
2022-12-03T11:29:14.416Z,101789.91
2022-12-03T11:29:59.789Z,101795.06
2022-12-03T11:31:09.868Z,101796.56
2022-12-03T11:31:43.887Z,101793.91
2022-12-03T11:32:48.441Z,101792.25
2022-12-03T11:33:22.333Z,101802.06
2022-12-03T11:34:38.942Z,101794.75
2022-12-03T11:35:12.322Z,101790.44
2022-12-03T11:36:15.444Z,101799.41
2022-12-03T11:37:17.430Z,101801.88
2022-12-03T11:37:52.361Z,101794.75
2022-12-03T11:38:52.326Z,101795.56
2022-12-03T11:39:42.423Z,101805.19
2022-12-03T11:40:37.705Z,101793.25
2022-12-03T11:41:12.998Z,101789.09
2022-12-03T11:42:25.731Z,101796.06
2022-12-03T11:42:57.885Z,101804.84
2022-12-03T11:44:04.750Z,101810.84
2022-12-03T11:44:36.962Z,101796.75
2022-12-03T11:45:18.868Z,101805.88
2022-12-03T11:45:53.687Z,101795.41
2022-12-03T11:46:29.693Z,101800.56
2022-12-03T11:47:15.345Z,101801.22
2022-12-03T11:48:00.866Z,101798.22
2022-12-03T11:48:33.118Z,101802.53
2022-12-03T11:49:26.066Z,101803.88
2022-12-03T11:49:58.302Z,101803.03
2022-12-03T11:50:39.790Z,101800.22
2022-12-03T11:51:14.630Z,101808.88
2022-12-03T11:51:46.920Z,101801.56
2022-12-03T11:52:32.445Z,101797.75
2022-12-03T11:53:14.643Z,101805.53
2022-12-03T11:53:53.995Z,101811.03
2022-12-03T11:54:26.516Z,101809.69
2022-12-03T11:55:05.530Z,101814.19
2022-12-03T11:55:40.348Z,101814.19
2022-12-03T11:56:20.302Z,101810.50
2022-12-03T11:56:53.806Z,101817.81
2022-12-03T11:57:33.215Z,101812.34
2022-12-03T11:58:16.163Z,101809.03
2022-12-03T11:58:48.800Z,101814.19
2022-12-03T11:59:20.912Z,101808.03
2022-12-03T12:00:10.331Z,101803.56
2022-12-03T12:00:51.662Z,101807.53
2022-12-03T12:01:38.833Z,101807.53
2022-12-03T12:02:20.517Z,101809.88
2022-12-03T12:02:57.313Z,101805.88
2022-12-03T12:03:33.473Z,101813.16
2022-12-03T12:04:07.088Z,101819.31
2022-12-03T12:04:46.553Z,101817.63
2022-12-03T12:05:28.726Z,101823.09
2022-12-03T12:06:09.005Z,101816.16
2022-12-03T12:06:42.728Z,101810.16
2022-12-03T12:07:38.022Z,101814.66
2022-12-03T12:08:19.740Z,101812.19
2022-12-03T12:09:03.966Z,101821.78
2022-12-03T12:09:50.808Z,101821.63
2022-12-03T12:10:44.754Z,101819.94
2022-12-03T12:11:18.450Z,101816.16
2022-12-03T12:11:53.125Z,101814.16
2022-12-03T12:12:31.280Z,101819.94
2022-12-03T12:13:03.431Z,101818.97
2022-12-03T12:13:59.532Z,101812.47